Time;durP1;ratioP1;P1;durP2;ratioP2;P2;SDS_P1;SDS_P2;PMS_P1;PMS_P2;Temp;Humidity;BMP_temperature;BMP_pressure;BME280_temperature;BME280_humidity;BME280_pressure;Samples;Min_cycle;Max_cycle;Signal;HPM_P1;HPM_P2
2022/05/27 00:01:12;;;;;;;0.73;0.40;;;15.10;99.90;;;;;;5132166;28;20041;-87
2022/05/27 00:03:37;;;;;;;2.22;0.47;;;15.10;99.90;;;;;;5113552;28;20062;-86
2022/05/27 00:06:03;;;;;;;;;;;15.20;99.90;;;;;;5132338;27;20047;-87
2022/05/27 00:08:29;;;;;;;0.63;0.30;;;15.20;99.90;;;;;;5134373;27;19907;-87
2022/05/27 00:10:56;;;;;;;;;;;15.30;99.90;;;;;;5136611;27;20483;-84
2022/05/27 00:13:22;;;;;;;1.85;0.50;;;15.30;99.90;;;;;;5135908;27;19952;-87
2022/05/27 00:15:47;;;;;;;2.10;0.30;;;15.30;99.90;;;;;;5121334;27;20023;-85
2022/05/27 00:18:13;;;;;;;;;;;15.40;99.90;;;;;;5135405;27;20139;-87
2022/05/27 00:20:39;;;;;;;2.47;0.55;;;15.50;99.90;;;;;;5135667;27;19913;-85
2022/05/27 00:23:05;;;;;;;;;;;15.50;99.90;;;;;;5135670;27;20126;-88
2022/05/27 00:25:31;;;;;;;1.10;0.30;;;15.50;99.90;;;;;;5135064;27;19916;-86
2022/05/27 00:27:57;;;;;;;;;;;15.50;99.90;;;;;;5135955;27;20027;-88
2022/05/27 00:30:23;;;;;;;3.97;0.50;;;15.50;99.90;;;;;;5135986;27;19955;-86
2022/05/27 00:32:49;;;;;;;2.42;0.30;;;15.50;99.90;;;;;;5136239;27;20031;-88
2022/05/27 00:35:15;;;;;;;;;;;15.50;99.90;;;;;;5117800;27;20364;-88
2022/05/27 00:37:41;;;;;;;2.40;0.30;;;15.40;99.90;;;;;;5117167;27;20357;-86
2022/05/27 00:40:07;;;;;;;;;;;15.30;99.90;;;;;;5136074;27;20059;-88
2022/05/27 00:42:32;;;;;;;1.10;0.30;;;15.30;99.90;;;;;;5135137;27;20669;-87
2022/05/27 00:44:58;;;;;;;;;;;15.20;99.90;;;;;;5131512;27;20026;-86
2022/05/27 00:47:29;;;;;;;3.40;0.30;;;15.20;99.90;;;;;;5133153;27;19964;-85
2022/05/27 00:49:59;;;;;;;1.95;0.38;;;15.10;99.90;;;;;;5133133;27;20031;-85
2022/05/27 00:52:30;;;;;;;3.20;0.40;;;15.10;99.90;;;;;;5116472;27;20027;-86
2022/05/27 00:54:56;;;;;;;2.35;0.30;;;15.10;99.90;;;;;;5135369;27;20083;-87
2022/05/27 00:57:32;;;;;;;;;;;15.00;99.90;;;;;;5135485;27;20507;-87
2022/05/27 01:00:09;;;;;;;0.73;0.30;;;15.00;99.90;;;;;;5135534;27;19910;-90
2022/05/27 01:02:36;;;;;;;3.35;0.30;;;15.00;99.90;;;;;;5116794;27;20062;-87
2022/05/27 01:05:03;;;;;;;1.65;0.30;;;15.00;99.90;;;;;;5116461;27;20027;-87
2022/05/27 01:07:30;;;;;;;0.75;0.20;;;15.00;99.90;;;;;;5134905;27;20715;-86
2022/05/27 01:09:56;;;;;;;6.25;1.75;;;15.00;99.90;;;;;;5115282;27;20023;-85
2022/05/27 01:12:51;;;;;;;1.42;0.40;;;14.90;99.90;;;;;;5115149;27;20566;-86
2022/05/27 01:15:24;;;;;;;3.72;0.60;;;14.90;99.90;;;;;;5075618;27;20085;-85
2022/05/27 01:18:08;;;;;;;1.33;0.30;;;14.90;99.90;;;;;;5133175;27;20031;-85
2022/05/27 01:20:42;;;;;;;0.98;0.40;;;14.80;99.90;;;;;;5133301;27;20031;-85
2022/05/27 01:23:29;;;;;;;6.90;0.50;;;14.70;99.90;;;;;;5133096;27;20035;-86
2022/05/27 01:26:14;;;;;;;2.28;0.30;;;14.70;99.90;;;;;;5133125;27;20027;-86
2022/05/27 01:28:39;;;;;;;4.45;0.40;;;14.60;99.90;;;;;;5114181;27;20051;-85
2022/05/27 01:31:17;;;;;;;;;;;14.60;99.90;;;;;;5132854;27;20126;-85
2022/05/27 01:34:03;;;;;;;0.65;0.30;;;14.60;99.90;;;;;;5114967;27;20291;-85
2022/05/27 01:36:49;;;;;;;0.43;0.33;;;14.50;99.90;;;;;;5133394;27;20033;-86
2022/05/27 01:39:34;;;;;;;1.65;0.40;;;14.50;99.90;;;;;;5055944;27;20815;-85
2022/05/27 01:42:23;;;;;;;3.08;0.40;;;14.50;99.90;;;;;;5114605;27;20708;-87
2022/05/27 01:44:57;;;;;;;1.05;0.35;;;14.50;99.90;;;;;;5115290;27;20031;-85
2022/05/27 01:47:36;;;;;;;1.80;0.50;;;14.40;99.90;;;;;;5115236;27;20019;-87
2022/05/27 01:50:18;;;;;;;1.10;0.50;;;14.40;99.90;;;;;;5126722;27;20053;-86
2022/05/27 01:53:24;;;;;;;3.63;0.40;;;14.40;99.90;;;;;;5133814;27;20102;-87
2022/05/27 01:56:21;;;;;;;2.88;0.40;;;14.30;99.90;;;;;;5115051;27;20031;-88
2022/05/27 01:58:58;;;;;;;0.95;0.35;;;14.30;99.90;;;;;;5110110;27;20031;-88
2022/05/27 02:01:32;;;;;;;4.47;0.60;;;14.30;99.90;;;;;;5115033;27;20027;-86
2022/05/27 02:04:15;;;;;;;4.78;0.73;;;14.30;99.90;;;;;;5132880;27;20108;-86
2022/05/27 02:06:49;;;;;;;5.80;0.40;;;14.30;99.90;;;;;;5132704;27;20030;-87
2022/05/27 02:09:18;;;;;;;2.78;0.40;;;14.30;99.90;;;;;;5133414;27;20031;-85
2022/05/27 02:11:48;;;;;;;1.50;0.30;;;14.20;99.90;;;;;;5114665;27;20019;-87
2022/05/27 02:14:23;;;;;;;1.20;0.43;;;14.20;99.90;;;;;;5114869;27;20429;-86
2022/05/27 02:16:54;;;;;;;2.67;0.40;;;14.20;99.90;;;;;;5133326;27;20041;-87
2022/05/27 02:19:28;;;;;;;0.73;0.43;;;14.10;99.90;;;;;;5132771;27;20027;-87
2022/05/27 02:21:59;;;;;;;4.97;0.30;;;14.10;99.90;;;;;;5114739;27;20511;-87
2022/05/27 02:24:42;;;;;;;3.38;0.40;;;14.00;99.90;;;;;;5110792;28;20032;-88
2022/05/27 02:27:12;;;;;;;1.20;0.32;;;14.00;99.90;;;;;;5102459;27;20026;-86
2022/05/27 02:29:41;;;;;;;0.70;0.40;;;13.90;99.90;;;;;;5113956;28;20464;-87
2022/05/27 02:32:15;;;;;;;6.57;0.40;;;13.90;99.90;;;;;;5132366;27;20054;-87
2022/05/27 02:35:07;;;;;;;2.50;0.55;;;13.80;99.90;;;;;;5115064;27;20035;-86
2022/05/27 02:38:00;;;;;;;1.75;0.50;;;13.80;99.90;;;;;;5115233;27;20029;-89
2022/05/27 02:41:00;;;;;;;0.73;0.30;;;13.70;99.90;;;;;;5110466;27;20058;-88
2022/05/27 02:43:49;;;;;;;1.45;0.40;;;13.60;99.90;;;;;;5063048;28;20498;-87
2022/05/27 02:46:37;;;;;;;3.33;0.50;;;13.60;99.90;;;;;;5112509;28;20031;-88
2022/05/27 02:49:28;;;;;;;1.70;0.30;;;13.60;99.90;;;;;;5113168;28;20031;-88
2022/05/27 02:52:03;;;;;;;3.30;0.35;;;13.50;99.90;;;;;;5078927;28;20032;-88
2022/05/27 02:55:00;;;;;;;2.47;0.30;;;13.50;99.90;;;;;;5091524;28;20053;-86
2022/05/27 02:57:43;;;;;;;2.05;0.50;;;13.60;99.90;;;;;;5091947;28;20081;-87
2022/05/27 03:00:23;;;;;;;4.03;0.40;;;13.60;99.90;;;;;;5109545;28;20036;-87
2022/05/27 03:02:49;;;;;;;1.48;0.30;;;13.60;99.90;;;;;;5111487;28;20035;-86
2022/05/27 03:05:19;;;;;;;1.00;0.30;;;13.60;99.90;;;;;;5111877;28;20119;-84
2022/05/27 03:08:14;;;;;;;3.28;0.40;;;13.70;99.90;;;;;;5111978;28;20031;-86
2022/05/27 03:10:57;;;;;;;1.25;0.40;;;13.80;99.90;;;;;;5111912;28;20032;-88
2022/05/27 03:13:34;;;;;;;1.83;0.35;;;13.80;99.90;;;;;;5112445;28;20032;-87
2022/05/27 03:16:04;;;;;;;1.48;0.90;;;13.90;99.90;;;;;;5112390;28;20055;-89
2022/05/27 03:19:00;;;;;;;0.93;0.30;;;14.00;99.90;;;;;;5094285;28;20040;-88
2022/05/27 03:21:43;;;;;;;1.25;0.25;;;14.00;99.90;;;;;;5111883;28;20026;-86
2022/05/27 03:24:19;;;;;;;0.85;0.47;;;14.10;99.90;;;;;;5093443;28;20048;-88
2022/05/27 03:26:45;;;;;;;0.88;0.38;;;14.20;99.90;;;;;;5094046;28;20115;-87
2022/05/27 03:29:25;;;;;;;;;;;14.30;99.90;;;;;;5094545;28;20169;-86
2022/05/27 03:31:51;;;;;;;2.10;0.40;;;14.40;99.90;;;;;;5094013;28;19904;-87
2022/05/27 03:34:55;;;;;;;;;;;14.40;99.90;;;;;;5094601;28;20088;-86
2022/05/27 03:37:33;;;;;;;4.05;0.40;;;14.50;99.90;;;;;;5030239;28;19953;-86
2022/05/27 03:40:11;;;;;;;2.00;0.47;;;14.60;99.90;;;;;;5028611;28;20022;-84
2022/05/27 03:42:39;;;;;;;0.85;0.30;;;14.70;99.90;;;;;;5094066;27;20598;-84
2022/05/27 03:45:06;;;;;;;1.27;0.30;;;14.80;99.90;;;;;;5117193;27;20026;-86
2022/05/27 03:47:34;;;;;;;1.17;0.30;;;14.90;99.90;;;;;;5117335;27;20019;-85
2022/05/27 03:49:59;;;;;;;3.38;0.32;;;15.00;99.90;;;;;;5135253;27;20413;-86
2022/05/27 03:52:28;;;;;;;;;;;15.10;99.90;;;;;;5117506;27;20117;-85
2022/05/27 03:54:54;;;;;;;2.05;0.30;;;15.30;99.90;;;;;;5135694;27;19914;-86
2022/05/27 03:57:20;;;;;;;;;;;15.50;99.90;;;;;;5117299;27;20031;-86
2022/05/27 03:59:46;;;;;;;1.15;0.52;;;15.70;99.90;;;;;;5135522;27;19907;-85
2022/05/27 04:02:12;;;;;;;1.02;0.20;;;15.70;99.90;;;;;;5119725;27;20039;-84
2022/05/27 04:04:38;;;;;;;2.13;0.40;;;15.80;99.90;;;;;;5097081;28;20050;-86
2022/05/27 04:07:04;;;;;;;;;;;15.90;99.90;;;;;;5105902;27;20023;-86
2022/05/27 04:09:30;;;;;;;0.95;0.30;;;16.00;99.90;;;;;;5116836;27;20420;-85
2022/05/27 04:11:56;;;;;;;2.50;0.30;;;16.20;99.90;;;;;;5135052;27;20034;-86
2022/05/27 04:14:22;;;;;;;1.75;0.88;;;16.30;99.90;;;;;;5135059;27;20016;-84
2022/05/27 04:16:48;;;;;;;1.55;0.30;;;16.50;99.90;;;;;;5135150;27;20054;-85
2022/05/27 04:19:14;;;;;;;;;;;16.60;99.90;;;;;;5135165;27;20549;-85
2022/05/27 04:21:40;;;;;;;3.55;0.55;;;16.80;99.90;;;;;;5133905;27;19907;-85
2022/05/27 04:24:06;;;;;;;1.45;0.40;;;16.90;99.90;;;;;;5124410;27;20055;-85
2022/05/27 04:26:33;;;;;;;1.60;0.30;;;17.10;99.90;;;;;;5115468;27;20034;-83
2022/05/27 04:28:59;;;;;;;2.20;0.40;;;17.30;99.90;;;;;;5115140;27;20054;-84
2022/05/27 04:31:24;;;;;;;2.28;0.20;;;17.40;99.90;;;;;;5134108;27;20364;-84
2022/05/27 04:33:50;;;;;;;0.50;0.30;;;17.60;99.90;;;;;;5115011;27;20482;-83
2022/05/27 04:36:16;;;;;;;0.95;0.30;;;17.70;99.90;;;;;;5133198;27;20023;-83
2022/05/27 04:38:42;;;;;;;0.52;0.30;;;17.80;99.90;;;;;;5115223;27;20155;-83
2022/05/27 04:41:08;;;;;;;1.50;0.30;;;17.90;99.90;;;;;;5133877;27;20050;-84
2022/05/27 04:43:34;;;;;;;1.10;0.40;;;18.00;99.90;;;;;;5115016;27;20093;-84
2022/05/27 04:46:01;;;;;;;3.33;0.30;;;18.00;99.90;;;;;;5133770;27;20056;-83
2022/05/27 04:48:27;;;;;;;1.05;0.50;;;18.20;99.90;;;;;;5133869;27;20023;-82
2022/05/27 04:50:53;;;;;;;1.40;0.30;;;18.20;99.90;;;;;;5115160;27;20045;-85
2022/05/27 04:53:18;;;;;;;0.60;0.30;;;18.40;99.90;;;;;;5132578;27;20044;-83
2022/05/27 04:55:44;;;;;;;0.77;0.20;;;18.50;99.90;;;;;;5115295;27;20031;-83
2022/05/27 04:58:11;;;;;;;2.35;0.57;;;18.70;99.90;;;;;;5115297;27;20037;-83
2022/05/27 05:00:58;;;;;;;1.02;0.35;;;18.80;99.90;;;;;;5114346;27;20023;-82
2022/05/27 05:03:24;;;;;;;5.18;0.30;;;19.00;99.90;;;;;;5114241;27;20079;-83
2022/05/27 05:05:49;;;;;;;1.38;0.40;;;19.20;99.90;;;;;;5132382;27;20077;-82
2022/05/27 05:08:36;;;;;;;4.13;0.30;;;19.50;98.50;;;;;;5133022;27;20031;-82
2022/05/27 05:11:04;;;;;;;1.33;0.30;;;19.80;96.10;;;;;;5132502;27;20031;-82
2022/05/27 05:13:34;;;;;;;1.63;0.20;;;20.10;94.40;;;;;;5113029;27;20034;-82
2022/05/27 05:16:00;;;;;;;1.42;0.35;;;20.20;93.10;;;;;;5112892;27;20031;-81
2022/05/27 05:18:26;;;;;;;0.98;0.40;;;20.30;92.90;;;;;;5132112;27;20645;-81
2022/05/27 05:20:52;;;;;;;0.90;0.30;;;20.50;92.50;;;;;;5131993;27;20115;-80
2022/05/27 05:23:18;;;;;;;0.90;0.30;;;20.40;90.90;;;;;;5113111;27;20039;-80
2022/05/27 05:25:43;;;;;;;2.05;0.32;;;20.50;88.80;;;;;;5131651;27;20031;-81
2022/05/27 05:28:09;;;;;;;6.15;0.30;;;20.50;90.60;;;;;;5113596;27;20027;-81
2022/05/27 05:30:35;;;;;;;1.95;0.30;;;20.60;86.00;;;;;;5131511;27;20027;-81
2022/05/27 05:33:00;;;;;;;2.15;0.40;;;20.60;85.10;;;;;;5113083;27;20038;-82
2022/05/27 05:35:26;;;;;;;1.92;0.40;;;20.70;82.70;;;;;;5131404;27;20115;-80
2022/05/27 05:37:52;;;;;;;2.75;0.40;;;20.70;79.70;;;;;;5131005;27;20518;-81
2022/05/27 05:40:18;;;;;;;10.38;0.65;;;20.80;77.70;;;;;;5112993;27;20151;-82
2022/05/27 05:42:46;;;;;;;1.33;0.28;;;20.90;77.00;;;;;;5130964;27;20531;-82
2022/05/27 05:45:14;;;;;;;1.02;0.38;;;21.20;74.90;;;;;;5131507;27;20079;-80
2022/05/27 05:47:40;;;;;;;5.15;0.40;;;21.60;73.30;;;;;;5130927;27;20709;-81
2022/05/27 05:50:06;;;;;;;2.88;0.60;;;22.20;69.30;;;;;;5131074;27;20050;-81
2022/05/27 05:52:32;;;;;;;2.92;0.40;;;22.90;66.20;;;;;;5112919;27;20034;-82
2022/05/27 05:54:58;;;;;;;0.50;0.30;;;23.80;63.40;;;;;;5131221;27;20027;-83
2022/05/27 05:57:23;;;;;;;0.80;0.40;;;25.20;58.80;;;;;;5131059;27;20456;-81
2022/05/27 05:59:49;;;;;;;4.88;0.50;;;26.80;51.90;;;;;;5112743;27;20089;-81
2022/05/27 06:02:15;;;;;;;1.00;0.30;;;28.10;45.90;;;;;;5130585;27;20034;-82
2022/05/27 06:04:40;;;;;;;1.58;0.65;;;29.00;43.60;;;;;;5112396;27;20078;-81
2022/05/27 06:07:06;;;;;;;1.80;0.50;;;29.90;40.20;;;;;;5112430;27;20498;-81
2022/05/27 06:09:32;;;;;;;1.05;0.50;;;30.70;38.20;;;;;;5130546;27;20635;-81
2022/05/27 06:12:01;;;;;;;4.88;0.55;;;31.30;36.40;;;;;;5130489;27;20739;-81
2022/05/27 06:14:27;;;;;;;3.38;0.50;;;31.90;34.60;;;;;;5112023;27;20757;-82
2022/05/27 06:16:53;;;;;;;0.47;0.30;;;32.30;33.30;;;;;;5111606;27;20034;-80
2022/05/27 06:19:18;;;;;;;1.38;0.50;;;32.70;32.50;;;;;;5130202;27;20030;-81
2022/05/27 06:21:44;;;;;;;1.27;0.60;;;32.90;32.10;;;;;;5130059;27;20034;-81
2022/05/27 06:24:10;;;;;;;2.20;0.60;;;33.00;31.00;;;;;;5129459;27;20099;-81
2022/05/27 06:26:38;;;;;;;4.18;0.40;;;33.50;29.90;;;;;;5129868;27;20625;-82
2022/05/27 06:34:32;;;;;;;1.08;0.60;;;33.50;29.70;;;;;;5129554;27;20069;-81
2022/05/27 06:37:07;;;;;;;3.45;0.55;;;33.70;30.00;;;;;;5129607;27;20047;-81
2022/05/27 06:39:35;;;;;;;5.50;0.57;;;33.50;29.90;;;;;;5129415;27;20039;-81
2022/05/27 06:42:02;;;;;;;0.70;0.47;;;33.30;30.00;;;;;;5129029;27;20055;-82
2022/05/27 06:44:29;;;;;;;0.85;0.60;;;33.30;29.90;;;;;;5108489;28;20077;-80
2022/05/27 06:46:55;;;;;;;2.38;0.55;;;33.50;29.70;;;;;;5113466;27;20404;-81
2022/05/27 06:49:20;;;;;;;1.95;0.50;;;33.30;30.10;;;;;;5108738;28;20423;-80
2022/05/27 06:51:47;;;;;;;1.15;0.70;;;33.40;29.90;;;;;;5110138;27;20019;-81
2022/05/27 06:54:15;;;;;;;4.95;0.60;;;33.40;30.30;;;;;;5129093;27;20084;-82
2022/05/27 06:56:42;;;;;;;2.17;0.43;;;33.40;30.40;;;;;;5110901;28;20030;-81
2022/05/27 06:59:08;;;;;;;2.60;0.40;;;33.30;29.80;;;;;;5129085;28;20027;-82
2022/05/27 07:01:35;;;;;;;2.10;0.52;;;33.40;29.80;;;;;;5111218;28;20031;-81
2022/05/27 07:04:02;;;;;;;2.03;0.55;;;33.80;28.70;;;;;;5128667;28;20041;-81
2022/05/27 07:06:33;;;;;;;7.60;0.60;;;33.40;28.80;;;;;;5131085;27;20061;-81
2022/05/27 07:09:01;;;;;;;1.48;0.50;;;33.30;29.00;;;;;;5128830;28;20119;-81
2022/05/27 07:11:27;;;;;;;4.97;0.45;;;33.30;28.70;;;;;;5129091;27;20372;-81
2022/05/27 07:13:53;;;;;;;4.53;0.50;;;33.40;29.10;;;;;;5129362;28;20023;-81
2022/05/27 07:16:19;;;;;;;1.00;0.45;;;33.10;29.30;;;;;;5131507;27;20495;-81
2022/05/27 07:18:44;;;;;;;1.77;0.50;;;33.10;29.30;;;;;;5142738;27;20506;-81
2022/05/27 07:21:10;;;;;;;2.17;0.52;;;32.90;29.40;;;;;;5135484;27;20035;-81
2022/05/27 07:23:36;;;;;;;1.20;0.60;;;32.70;29.90;;;;;;5134942;27;20035;-80
2022/05/27 07:26:02;;;;;;;3.58;0.70;;;32.70;30.10;;;;;;5107962;28;20616;-81
2022/05/27 07:28:28;;;;;;;1.67;0.70;;;32.90;30.00;;;;;;5112758;28;20029;-81
2022/05/27 07:30:56;;;;;;;1.08;0.43;;;32.90;29.70;;;;;;5094113;28;20031;-81
2022/05/27 07:33:22;;;;;;;3.80;0.73;;;32.80;31.00;;;;;;5112587;28;20024;-80
2022/05/27 07:35:48;;;;;;;0.93;0.55;;;32.80;30.00;;;;;;5128471;27;20356;-81
2022/05/27 07:38:15;;;;;;;2.75;0.63;;;32.60;30.10;;;;;;5132985;27;20031;-81
2022/05/27 07:40:41;;;;;;;1.17;0.60;;;32.60;30.60;;;;;;5114557;27;20034;-81
2022/05/27 07:43:08;;;;;;;5.03;0.60;;;32.70;30.40;;;;;;5105500;27;20043;-81
2022/05/27 07:45:36;;;;;;;1.48;0.68;;;32.80;30.60;;;;;;5130587;27;20023;-81
2022/05/27 07:48:02;;;;;;;3.00;0.50;;;32.60;30.70;;;;;;5131149;27;20019;-83
2022/05/27 07:50:28;;;;;;;2.90;1.02;;;32.70;30.70;;;;;;5131259;27;20023;-83
2022/05/27 07:52:54;;;;;;;1.10;0.50;;;32.80;30.40;;;;;;5114561;27;20023;-83
2022/05/27 07:55:20;;;;;;;2.15;0.68;;;32.70;30.10;;;;;;5131100;27;20027;-83
2022/05/27 07:57:47;;;;;;;1.75;0.65;;;32.60;30.60;;;;;;5131664;27;20034;-83
2022/05/27 08:00:27;;;;;;;1.52;0.75;;;32.40;31.80;;;;;;5130995;27;20042;-86
2022/05/27 08:02:52;;;;;;;1.15;0.40;;;32.30;31.10;;;;;;5131187;27;20063;-83
2022/05/27 08:05:24;;;;;;;0.93;0.50;;;32.40;31.60;;;;;;5131366;27;20019;-82
2022/05/27 08:07:51;;;;;;;1.05;0.40;;;32.50;30.90;;;;;;5130856;27;20126;-82
2022/05/27 08:10:19;;;;;;;2.20;0.50;;;32.80;31.00;;;;;;5131730;27;20028;-83
2022/05/27 08:12:45;;;;;;;4.13;0.63;;;32.60;30.80;;;;;;5112634;27;20019;-84
2022/05/27 08:15:12;;;;;;;2.75;0.60;;;32.50;30.80;;;;;;5115345;27;20019;-84
2022/05/27 08:17:38;;;;;;;1.77;0.65;;;32.40;31.20;;;;;;5133565;27;20058;-88
2022/05/27 08:20:07;;;;;;;2.40;0.93;;;32.30;31.30;;;;;;5132137;27;20305;-84
2022/05/27 08:22:32;;;;;;;1.83;0.68;;;32.10;32.00;;;;;;5131043;27;20765;-83
2022/05/27 08:24:58;;;;;;;3.70;0.90;;;32.30;31.90;;;;;;5131216;27;20024;-81
2022/05/27 08:27:23;;;;;;;4.43;0.80;;;32.60;31.10;;;;;;5129478;27;20122;-81
2022/05/27 08:29:49;;;;;;;6.93;1.00;;;32.40;31.40;;;;;;5131989;27;20051;-82
2022/05/27 08:32:15;;;;;;;4.10;0.82;;;32.40;31.60;;;;;;5111447;27;20558;-80
2022/05/27 08:40:16;;;;;;;2.80;0.65;;;32.60;32.10;;;;;;5129172;27;20061;-80
2022/05/27 08:43:01;;;;;;;2.83;0.60;;;32.40;31.60;;;;;;5128844;27;20054;-79
2022/05/27 08:45:34;;;;;;;2.13;0.60;;;32.60;31.40;;;;;;5129562;27;20080;-80
2022/05/27 08:48:06;;;;;;;2.83;0.65;;;32.70;31.30;;;;;;5111329;27;20026;-80
2022/05/27 08:50:38;;;;;;;1.88;0.60;;;32.90;31.90;;;;;;5129442;27;20023;-78
2022/05/27 08:53:22;;;;;;;3.15;0.70;;;32.80;31.20;;;;;;5128749;27;20038;-79
2022/05/27 09:01:48;;;;;;;5.72;0.70;;;32.70;32.50;;;;;;5129321;27;20056;-77
2022/05/27 09:04:36;;;;;;;2.25;0.47;;;33.00;31.70;;;;;;5129254;27;20039;-77
2022/05/27 09:07:20;;;;;;;1.73;0.50;;;33.00;31.40;;;;;;5129268;27;20044;-79
2022/05/27 09:09:46;;;;;;;3.13;0.60;;;33.00;31.80;;;;;;5091881;28;20208;-79
2022/05/27 09:12:37;;;;;;;4.28;0.73;;;33.00;31.10;;;;;;5110717;28;20515;-81
2022/05/27 09:15:22;;;;;;;3.08;1.00;;;33.10;31.90;;;;;;5093676;28;20554;-80
2022/05/27 09:18:32;;;;;;;0.80;0.47;;;33.00;31.80;;;;;;5110416;28;20023;-79
2022/05/27 09:21:17;;;;;;;1.40;0.70;;;33.00;30.50;;;;;;5089222;28;20038;-83
2022/05/27 09:23:55;;;;;;;4.63;0.70;;;33.10;31.60;;;;;;5111013;28;20097;-79
2022/05/27 09:26:33;;;;;;;2.47;0.60;;;33.20;31.70;;;;;;5101381;27;20084;-80
2022/05/27 09:29:09;;;;;;;1.77;0.65;;;33.30;31.10;;;;;;5131397;27;20407;-82
2022/05/27 09:31:41;;;;;;;10.77;0.70;;;33.30;31.30;;;;;;5131326;27;20019;-79
2022/05/27 09:34:10;;;;;;;1.48;0.70;;;33.10;31.10;;;;;;5112303;27;20027;-83
2022/05/27 09:36:41;;;;;;;5.70;0.68;;;32.80;30.70;;;;;;5131498;27;20019;-80
2022/05/27 09:39:11;;;;;;;1.25;0.60;;;32.80;30.80;;;;;;5130678;27;20027;-81
2022/05/27 09:41:52;;;;;;;2.05;0.50;;;32.30;31.40;;;;;;5130578;27;20078;-82
2022/05/27 09:44:35;;;;;;;3.35;0.80;;;32.20;31.60;;;;;;5131081;27;20035;-80
2022/05/27 09:47:02;;;;;;;0.82;0.70;;;32.20;31.80;;;;;;5114101;27;20106;-81
2022/05/27 09:49:28;;;;;;;1.50;0.70;;;32.10;31.80;;;;;;5130759;27;20114;-81
2022/05/27 09:51:54;;;;;;;2.10;0.50;;;32.30;32.70;;;;;;5130422;27;20576;-82
2022/05/27 09:54:41;;;;;;;6.07;1.27;;;32.70;32.00;;;;;;5130734;27;20292;-80
2022/05/27 09:57:13;;;;;;;10.23;0.60;;;33.00;31.00;;;;;;5112277;27;20031;-81
2022/05/27 09:59:42;;;;;;;1.77;0.65;;;32.90;31.80;;;;;;5112262;27;20115;-80
2022/05/27 10:02:16;;;;;;;0.70;0.50;;;32.80;32.10;;;;;;5130451;27;20750;-81
2022/05/27 10:05:23;;;;;;;4.53;0.60;;;32.50;31.80;;;;;;5112366;27;20031;-81
2022/05/27 10:07:59;;;;;;;2.55;0.52;;;32.10;32.20;;;;;;5080128;27;20035;-80
2022/05/27 10:10:32;;;;;;;4.22;0.82;;;31.30;32.60;;;;;;5112207;27;20487;-78
2022/05/27 10:13:15;;;;;;;2.78;0.88;;;30.50;33.60;;;;;;5111643;27;20491;-81
2022/05/27 10:15:41;;;;;;;0.55;0.40;;;30.10;34.70;;;;;;5130259;27;20019;-81
2022/05/27 10:18:22;;;;;;;1.25;0.43;;;29.80;35.40;;;;;;5111649;27;20087;-79
2022/05/27 10:21:12;;;;;;;0.63;0.30;;;29.60;35.00;;;;;;5130318;27;20024;-81
2022/05/27 10:23:43;;;;;;;1.33;0.45;;;29.30;36.30;;;;;;5100151;27;20047;-80
2022/05/27 10:26:29;;;;;;;1.52;0.50;;;29.00;36.40;;;;;;5129876;27;20019;-81
2022/05/27 10:29:02;;;;;;;1.67;0.50;;;28.80;36.80;;;;;;5130008;27;20098;-81
2022/05/27 10:31:29;;;;;;;7.80;0.50;;;28.60;37.30;;;;;;5130120;27;20023;-80
2022/05/27 10:33:55;;;;;;;1.15;0.40;;;28.50;37.30;;;;;;5129840;27;20027;-81
2022/05/27 10:36:49;;;;;;;4.07;0.57;;;28.40;37.60;;;;;;5111481;27;20396;-80
2022/05/27 10:40:04;;;;;;;1.05;0.40;;;28.10;36.90;;;;;;5129745;27;20423;-80
2022/05/27 10:42:52;;;;;;;7.15;1.13;;;27.80;38.30;;;;;;5055479;27;20816;-80
2022/05/27 10:45:40;;;;;;;1.85;0.52;;;27.70;39.30;;;;;;5129601;27;20059;-79
2022/05/27 10:48:39;;;;;;;2.22;0.38;;;27.70;39.70;;;;;;5110637;27;20031;-79
2022/05/27 10:51:26;;;;;;;2.38;0.68;;;27.80;39.30;;;;;;5128821;27;20027;-79
2022/05/27 10:54:13;;;;;;;1.85;0.75;;;27.80;39.70;;;;;;5128539;27;20265;-79
2022/05/27 11:03:04;;;;;;;5.22;0.65;;;27.80;38.80;;;;;;5131938;27;20070;-78
2022/05/27 11:05:38;;;;;;;1.58;0.50;;;27.50;38.80;;;;;;5115968;28;20200;-78
2022/05/27 11:08:19;;;;;;;1.70;0.75;;;27.30;39.50;;;;;;5130260;27;20039;-78
2022/05/27 11:10:48;;;;;;;1.58;0.40;;;27.20;40.20;;;;;;5128521;27;20437;-79
2022/05/27 11:16:35;;;;;;;1.88;0.43;;;27.20;40.50;;;;;;5130325;27;20050;-80
2022/05/27 11:19:01;;;;;;;2.90;0.88;;;27.40;40.60;;;;;;5123713;27;20043;-79
2022/05/27 11:21:58;;;;;;;1.20;0.50;;;27.40;40.50;;;;;;5109305;28;20490;-79
2022/05/27 11:25:01;;;;;;;1.85;0.50;;;27.40;39.40;;;;;;5108919;27;20517;-78
2022/05/27 11:27:48;;;;;;;1.92;0.52;;;27.30;39.50;;;;;;5118478;28;20039;-79
2022/05/27 11:30:37;;;;;;;3.22;0.70;;;27.10;39.20;;;;;;5119614;28;20039;-79
2022/05/27 11:33:06;;;;;;;5.18;0.60;;;27.20;39.20;;;;;;5122643;28;20526;-79
2022/05/27 11:35:59;;;;;;;4.80;0.50;;;27.20;39.40;;;;;;5124297;28;20037;-79
2022/05/27 11:38:48;;;;;;;3.70;0.40;;;27.10;39.20;;;;;;5109472;28;20050;-79
2022/05/27 11:41:38;;;;;;;2.70;0.80;;;27.10;39.40;;;;;;5127440;28;20042;-79
2022/05/27 11:44:16;;;;;;;4.15;0.40;;;27.20;39.60;;;;;;5105128;28;20400;-79
2022/05/27 11:46:47;;;;;;;3.13;0.57;;;27.10;39.30;;;;;;5122620;27;20036;-79
2022/05/27 11:49:57;;;;;;;1.58;0.45;;;27.10;39.50;;;;;;5125204;27;20334;-80
2022/05/27 11:52:26;;;;;;;0.90;0.30;;;27.20;40.10;;;;;;5104674;27;20040;-81
2022/05/27 11:55:02;;;;;;;9.98;0.90;;;27.30;39.80;;;;;;5118697;27;20119;-80
2022/05/27 11:57:42;;;;;;;;;;;27.30;39.80;;;;;;5113294;28;20035;-79
2022/05/27 12:00:16;;;;;;;1.10;0.47;;;27.30;39.70;;;;;;5116808;27;19948;-79
2022/05/27 12:02:54;;;;;;;3.20;0.40;;;27.40;40.40;;;;;;5089760;28;20668;-80
2022/05/27 12:05:28;;;;;;;4.93;0.63;;;27.60;39.60;;;;;;5096079;28;20039;-79
2022/05/27 12:08:00;;;;;;;3.42;0.93;;;27.70;39.10;;;;;;5125663;27;20401;-80
2022/05/27 12:10:48;;;;;;;1.60;0.60;;;27.70;38.80;;;;;;5124060;27;20067;-79
2022/05/27 12:13:23;;;;;;;1.85;0.60;;;27.80;39.50;;;;;;5082738;28;20042;-79
2022/05/27 12:15:57;;;;;;;6.32;0.82;;;27.70;39.30;;;;;;5112014;27;20042;-79
2022/05/27 12:18:43;;;;;;;3.45;0.43;;;27.80;39.50;;;;;;5122202;27;20553;-79
2022/05/27 12:21:36;;;;;;;3.70;0.95;;;27.80;38.80;;;;;;5089794;28;20035;-80
2022/05/27 12:24:24;;;;;;;4.68;0.52;;;27.80;39.20;;;;;;5099952;27;20077;-78
2022/05/27 12:26:55;;;;;;;0.75;0.40;;;27.80;38.90;;;;;;5119946;27;20378;-78
2022/05/27 12:29:22;;;;;;;10.52;0.88;;;27.80;38.60;;;;;;5098870;27;20074;-80
2022/05/27 12:31:50;;;;;;;1.40;0.50;;;27.80;38.90;;;;;;5104128;27;20070;-79
2022/05/27 12:34:28;;;;;;;2.08;0.57;;;27.80;39.00;;;;;;5123409;27;20533;-80
2022/05/27 12:37:15;;;;;;;1.38;0.47;;;27.80;38.30;;;;;;5129823;27;20507;-79
2022/05/27 12:39:42;;;;;;;3.25;0.88;;;27.70;38.60;;;;;;5131819;27;20039;-79
2022/05/27 12:42:29;;;;;;;1.60;0.40;;;27.70;39.60;;;;;;5112123;27;20513;-81
2022/05/27 12:44:55;;;;;;;3.50;0.43;;;27.60;39.70;;;;;;5130834;27;20095;-80
2022/05/27 12:47:30;;;;;;;2.90;0.60;;;27.60;39.70;;;;;;5111976;27;20019;-82
2022/05/27 12:50:01;;;;;;;0.85;0.52;;;27.60;40.00;;;;;;5112589;27;20138;-82
2022/05/27 12:52:29;;;;;;;2.60;0.50;;;27.60;39.40;;;;;;5114476;27;20411;-84
2022/05/27 12:54:56;;;;;;;1.33;0.40;;;27.60;39.60;;;;;;5133174;27;20098;-86
2022/05/27 13:01:08;;;;;;;8.93;0.45;;;27.80;40.50;;;;;;5133629;27;20510;-87
2022/05/27 13:03:33;;;;;;;2.13;0.50;;;27.80;39.60;;;;;;5128564;27;20519;-86
2022/05/27 13:06:12;;;;;;;3.28;0.57;;;27.90;39.60;;;;;;5133801;27;20102;-86
2022/05/27 13:08:53;;;;;;;2.97;0.80;;;27.80;40.00;;;;;;5132403;27;20023;-81
2022/05/27 13:11:21;;;;;;;1.67;0.60;;;27.70;40.60;;;;;;5113378;27;20023;-85
2022/05/27 13:14:00;;;;;;;3.28;0.50;;;27.60;40.50;;;;;;5131859;27;20023;-83
2022/05/27 13:16:40;;;;;;;2.15;0.50;;;27.70;41.00;;;;;;5131405;27;20019;-82
2022/05/27 13:19:26;;;;;;;3.10;0.50;;;27.70;40.90;;;;;;5129005;27;20037;-80
2022/05/27 13:21:51;;;;;;;;;;;27.70;40.60;;;;;;5129593;27;20027;-80
2022/05/27 13:24:17;;;;;;;4.93;0.70;;;27.70;40.40;;;;;;5128971;27;19915;-80
2022/05/27 13:26:56;;;;;;;2.83;0.40;;;27.70;40.60;;;;;;5111072;27;20063;-81
2022/05/27 13:29:38;;;;;;;2.30;0.52;;;27.80;41.60;;;;;;5129524;27;20039;-82
2022/05/27 13:32:11;;;;;;;4.22;0.65;;;27.80;40.40;;;;;;5128703;27;20020;-80
2022/05/27 13:34:37;;;;;;;2.70;0.40;;;27.80;40.60;;;;;;5112925;27;20119;-81
2022/05/27 13:37:06;;;;;;;4.93;0.50;;;27.70;41.40;;;;;;5129641;27;20098;-78
2022/05/27 13:39:49;;;;;;;9.52;0.80;;;27.70;41.30;;;;;;5111675;27;20084;-82
2022/05/27 13:42:26;;;;;;;1.40;0.60;;;27.70;41.00;;;;;;5116339;27;20062;-80
2022/05/27 13:44:53;;;;;;;1.10;0.40;;;27.60;40.80;;;;;;5129144;27;20537;-82
2022/05/27 13:47:24;;;;;;;4.85;0.50;;;27.60;40.80;;;;;;5131375;27;20497;-81
2022/05/27 13:49:50;;;;;;;6.53;0.50;;;27.70;40.80;;;;;;5132092;27;20031;-82
2022/05/27 13:52:22;;;;;;;2.40;0.60;;;27.70;40.40;;;;;;5114338;27;20083;-83